Time;durP1;ratioP1;P1;durP2;ratioP2;P2;SDS_P1;SDS_P2;PMS_P1;PMS_P2;Temp;Humidity;BMP_temperature;BMP_pressure;BME280_temperature;BME280_humidity;BME280_pressure;Samples;Min_cycle;Max_cycle;Signal;HPM_P1;HPM_P2
2022/01/14 00:01:55;;;;;;;35.42;14.48;;;;;;;;;;5021265;28;20362;-63
2022/01/14 00:04:22;;;;;;;39.10;16.83;;;;;;;;;;5023574;28;20580;-62
2022/01/14 00:06:48;;;;;;;42.85;17.08;;;;;;;;;;5006898;28;20389;-63
2022/01/14 00:09:16;;;;;;;45.35;17.73;;;;;;;;;;5020768;28;20501;-63
2022/01/14 00:11:52;;;;;;;39.90;16.30;;;;;;;;;;5000109;28;20095;-63
2022/01/14 00:16:50;;;;;;;54.10;18.23;;;;;;;;;;5010866;28;20577;-63
2022/01/14 00:19:17;;;;;;;59.42;19.38;;;;;;;;;;5020994;28;20053;-63
2022/01/14 00:21:45;;;;;;;61.40;19.00;;;;;;;;;;5014275;28;20049;-62
2022/01/14 00:32:20;;;;;;;50.00;18.58;;;;;;;;;;5014621;28;20076;-64
2022/01/14 00:34:46;;;;;;;55.65;16.80;;;;;;;;;;5005878;28;20050;-63
2022/01/14 00:37:14;;;;;;;46.85;18.73;;;;;;;;;;5011189;28;20422;-64
2022/01/14 00:39:41;;;;;;;44.30;15.83;;;;;;;;;;5011235;28;20060;-64
2022/01/14 00:42:07;;;;;;;62.33;18.65;;;;;;;;;;5019019;28;20516;-63
2022/01/14 00:44:34;;;;;;;50.85;18.55;;;;;;;;;;5018834;28;20432;-65
2022/01/14 00:47:01;;;;;;;51.45;17.85;;;;;;;;;;5010818;28;20045;-64
2022/01/14 00:49:28;;;;;;;50.07;17.80;;;;;;;;;;5014060;28;20053;-63
2022/01/14 00:51:54;;;;;;;50.80;16.40;;;;;;;;;;5005420;28;20207;-64
2022/01/14 00:54:21;;;;;;;50.08;18.45;;;;;;;;;;5018158;28;20577;-63
2022/01/14 00:57:13;;;;;;;53.78;18.80;;;;;;;;;;5011377;28;20057;-64
2022/01/14 00:59:36;;;;;;;52.97;19.17;;;;;;;;;;5015997;28;20053;-63
2022/01/14 01:02:03;;;;;;;51.25;19.85;;;;;;;;;;5021126;28;20049;-63
2022/01/14 01:04:36;;;;;;;54.08;19.52;;;;;;;;;;5005213;28;20429;-63
2022/01/14 01:07:03;;;;;;;79.80;20.10;;;;;;;;;;5023110;28;20053;-63
2022/01/14 01:09:31;;;;;;;53.67;20.33;;;;;;;;;;5003916;28;20046;-62
2022/01/14 01:14:40;;;;;;;49.97;19.05;;;;;;;;;;5011315;28;20520;-63
2022/01/14 01:17:06;;;;;;;61.03;18.38;;;;;;;;;;5012377;28;20072;-63
2022/01/14 01:19:33;;;;;;;54.60;20.15;;;;;;;;;;5015425;28;20045;-63
2022/01/14 01:22:00;;;;;;;60.03;19.88;;;;;;;;;;5012568;28;20704;-63
2022/01/14 01:24:29;;;;;;;;;;;;;;;;;;5015914;28;20513;-62
2022/01/14 01:26:56;;;;;;;68.65;20.13;;;;;;;;;;5009851;28;19925;-63
2022/01/14 01:32:08;;;;;;;51.70;19.33;;;;;;;;;;5007972;28;20525;-63
2022/01/14 01:34:35;;;;;;;62.00;19.42;;;;;;;;;;5016247;28;20041;-62
2022/01/14 01:37:02;;;;;;;62.03;19.48;;;;;;;;;;5025345;28;20145;-62
2022/01/14 01:39:29;;;;;;;60.47;19.65;;;;;;;;;;5008316;28;20045;-63
2022/01/14 01:41:57;;;;;;;60.25;20.13;;;;;;;;;;5022871;28;20054;-63
2022/01/14 01:44:47;;;;;;;61.75;20.70;;;;;;;;;;5006008;28;20049;-62
2022/01/14 01:47:44;;;;;;;62.83;18.77;;;;;;;;;;5010989;28;20075;-62
2022/01/14 01:50:11;;;;;;;59.95;21.00;;;;;;;;;;5011646;28;20064;-63
2022/01/14 01:53:05;;;;;;;84.38;22.30;;;;;;;;;;5018654;28;20638;-63
2022/01/14 01:55:32;;;;;;;61.03;21.02;;;;;;;;;;4996600;28;20495;-62
2022/01/14 01:57:58;;;;;;;50.95;19.25;;;;;;;;;;5017282;28;20302;-62
2022/01/14 02:00:26;;;;;;;69.55;20.77;;;;;;;;;;5018867;28;20485;-63
2022/01/14 02:02:54;;;;;;;60.65;19.95;;;;;;;;;;5012155;28;20438;-62
2022/01/14 02:05:22;;;;;;;51.45;19.70;;;;;;;;;;5016974;28;20052;-63
2022/01/14 02:07:48;;;;;;;64.50;19.05;;;;;;;;;;5008065;28;20041;-63
2022/01/14 02:10:15;;;;;;;50.78;18.42;;;;;;;;;;5011410;28;20411;-62
2022/01/14 02:12:50;;;;;;;53.67;19.70;;;;;;;;;;5010118;28;20050;-62
2022/01/14 02:15:44;;;;;;;63.15;19.50;;;;;;;;;;5014808;28;20049;-64
2022/01/14 02:23:25;;;;;;;70.10;18.63;;;;;;;;;;5010769;28;20407;-63
2022/01/14 02:25:51;;;;;;;57.58;19.88;;;;;;;;;;5005079;28;20412;-63
2022/01/14 02:28:18;;;;;;;44.63;17.60;;;;;;;;;;5019603;28;20597;-63
2022/01/14 02:30:45;;;;;;;63.00;20.77;;;;;;;;;;5007756;28;20049;-63
2022/01/14 02:33:12;;;;;;;58.55;20.38;;;;;;;;;;5024097;28;20406;-63
2022/01/14 02:35:39;;;;;;;60.00;19.08;;;;;;;;;;5010523;28;20597;-63
2022/01/14 02:38:08;;;;;;;46.53;18.77;;;;;;;;;;5009267;28;20365;-63
2022/01/14 02:40:34;;;;;;;52.65;19.52;;;;;;;;;;5015503;28;20490;-63
2022/01/14 02:43:02;;;;;;;46.92;17.98;;;;;;;;;;5011934;28;20049;-64
2022/01/14 02:45:31;;;;;;;46.25;18.70;;;;;;;;;;5014597;28;20045;-64
2022/01/14 02:47:57;;;;;;;46.30;19.17;;;;;;;;;;5013781;28;20525;-64
2022/01/14 02:50:25;;;;;;;46.75;19.80;;;;;;;;;;5013499;28;20060;-64
2022/01/14 02:55:20;;;;;;;84.13;20.30;;;;;;;;;;5011813;28;20279;-64
2022/01/14 02:57:48;;;;;;;51.25;18.27;;;;;;;;;;5023876;28;20058;-64
2022/01/14 03:00:15;;;;;;;59.65;19.42;;;;;;;;;;5010314;28;20441;-63
2022/01/14 03:02:44;;;;;;;49.22;17.73;;;;;;;;;;5022246;28;20300;-63
2022/01/14 03:05:10;;;;;;;48.92;17.17;;;;;;;;;;5009944;28;20049;-64
2022/01/14 03:07:40;;;;;;;53.17;19.27;;;;;;;;;;5022432;28;20049;-64
2022/01/14 03:10:07;;;;;;;43.95;17.85;;;;;;;;;;5016738;28;20501;-64
2022/01/14 03:12:34;;;;;;;49.17;18.20;;;;;;;;;;5015008;28;20060;-64
2022/01/14 03:15:00;;;;;;;46.67;18.70;;;;;;;;;;5019438;28;20440;-64
2022/01/14 03:17:28;;;;;;;58.67;18.75;;;;;;;;;;5013748;28;20041;-64
2022/01/14 03:19:55;;;;;;;53.10;17.50;;;;;;;;;;5021939;28;20415;-64
2022/01/14 03:27:21;;;;;;;50.97;18.88;;;;;;;;;;5023001;28;20056;-64
2022/01/14 03:29:47;;;;;;;39.35;18.77;;;;;;;;;;5011023;28;20049;-64
2022/01/14 03:32:14;;;;;;;56.75;17.42;;;;;;;;;;5014723;28;20045;-64
2022/01/14 03:34:40;;;;;;;48.22;18.63;;;;;;;;;;5007306;28;20438;-64
2022/01/14 03:37:07;;;;;;;46.67;18.30;;;;;;;;;;5020721;28;20056;-64
2022/01/14 03:39:33;;;;;;;87.50;20.77;;;;;;;;;;5023078;28;20491;-65
2022/01/14 03:42:25;;;;;;;43.45;18.30;;;;;;;;;;5008675;28;20045;-64
2022/01/14 03:44:51;;;;;;;49.15;17.48;;;;;;;;;;5014076;28;20286;-64
2022/01/14 03:47:18;;;;;;;44.30;17.25;;;;;;;;;;5006015;28;20547;-64
2022/01/14 03:49:44;;;;;;;52.55;18.98;;;;;;;;;;5020115;28;20060;-64
2022/01/14 03:52:10;;;;;;;44.30;18.00;;;;;;;;;;5007097;28;20056;-64
2022/01/14 03:54:37;;;;;;;55.08;19.45;;;;;;;;;;5019024;28;20223;-64
2022/01/14 03:57:05;;;;;;;66.55;19.60;;;;;;;;;;5019553;28;20041;-64
2022/01/14 03:59:31;;;;;;;53.42;19.85;;;;;;;;;;5008466;28;20438;-64
2022/01/14 04:01:58;;;;;;;74.82;18.80;;;;;;;;;;5010094;28;20510;-63
2022/01/14 04:04:24;;;;;;;56.40;20.70;;;;;;;;;;5020432;28;20056;-63
2022/01/14 04:06:51;;;;;;;59.28;19.17;;;;;;;;;;5017625;28;20048;-63
2022/01/14 04:09:17;;;;;;;55.33;19.63;;;;;;;;;;5015982;28;20278;-63
2022/01/14 04:11:45;;;;;;;58.42;20.38;;;;;;;;;;5016769;28;20049;-62
2022/01/14 04:15:36;;;;;;;64.65;20.67;;;;;;;;;;5015753;28;20053;-63
2022/01/14 04:17:06;;;;;;;64.60;20.10;;;;;;;;;;5004603;28;20054;-63
2022/01/14 04:19:33;;;;;;;92.85;21.00;;;;;;;;;;5021818;28;20313;-63
2022/01/14 04:22:00;;;;;;;84.65;20.42;;;;;;;;;;5007922;28;20049;-63
2022/01/14 04:24:26;;;;;;;75.28;21.35;;;;;;;;;;5024511;28;20156;-63
2022/01/14 04:26:53;;;;;;;70.53;20.38;;;;;;;;;;5003563;28;20084;-63
2022/01/14 04:29:19;;;;;;;62.90;20.73;;;;;;;;;;5015451;28;20053;-63
2022/01/14 04:31:45;;;;;;;55.80;21.23;;;;;;;;;;5016033;28;20057;-63
2022/01/14 04:34:15;;;;;;;68.88;20.73;;;;;;;;;;5013250;28;20152;-63
2022/01/14 04:36:42;;;;;;;86.22;19.92;;;;;;;;;;5014913;28;20772;-63
2022/01/14 04:39:09;;;;;;;67.35;20.88;;;;;;;;;;5015652;28;20049;-63
2022/01/14 04:41:35;;;;;;;68.10;20.33;;;;;;;;;;5009871;28;20442;-61
2022/01/14 04:44:02;;;;;;;63.88;19.92;;;;;;;;;;5015799;28;20047;-63
2022/01/14 04:49:07;;;;;;;87.22;20.77;;;;;;;;;;5021812;28;20676;-63
2022/01/14 04:51:33;;;;;;;77.70;21.60;;;;;;;;;;5010463;28;20049;-63
2022/01/14 04:54:02;;;;;;;57.60;20.45;;;;;;;;;;5015222;28;20709;-63
2022/01/14 04:56:30;;;;;;;54.50;19.58;;;;;;;;;;5008374;28;20404;-62
2022/01/14 04:58:57;;;;;;;102.32;19.30;;;;;;;;;;5021067;28;20339;-62
2022/01/14 05:01:24;;;;;;;58.65;18.27;;;;;;;;;;5005593;28;20482;-63
2022/01/14 05:03:50;;;;;;;75.30;19.50;;;;;;;;;;5019762;28;20056;-63
2022/01/14 05:06:17;;;;;;;103.53;21.50;;;;;;;;;;5014247;28;20462;-62
2022/01/14 05:08:43;;;;;;;81.70;19.17;;;;;;;;;;5005953;28;20353;-63
2022/01/14 05:13:45;;;;;;;73.18;18.67;;;;;;;;;;5008542;28;20053;-63
2022/01/14 05:16:11;;;;;;;102.22;20.08;;;;;;;;;;5022453;28;20049;-64
2022/01/14 05:18:38;;;;;;;78.53;19.10;;;;;;;;;;5012094;28;20408;-63
2022/01/14 05:21:05;;;;;;;53.33;18.90;;;;;;;;;;5014004;28;20053;-63
2022/01/14 05:23:31;;;;;;;67.55;18.25;;;;;;;;;;5015557;28;20049;-64
2022/01/14 05:25:58;;;;;;;93.88;19.73;;;;;;;;;;5011231;28;20049;-64
2022/01/14 05:28:24;;;;;;;76.72;20.20;;;;;;;;;;5018539;28;20056;-63
2022/01/14 05:30:50;;;;;;;58.97;17.95;;;;;;;;;;5011655;28;20049;-63
2022/01/14 05:33:17;;;;;;;91.53;19.33;;;;;;;;;;5017987;28;20522;-63
2022/01/14 05:35:44;;;;;;;79.28;18.83;;;;;;;;;;5010520;28;20054;-63
2022/01/14 05:38:11;;;;;;;63.38;19.13;;;;;;;;;;5012702;28;20459;-64
2022/01/14 05:40:37;;;;;;;60.10;18.23;;;;;;;;;;5019093;28;20049;-63
2022/01/14 05:43:04;;;;;;;80.40;16.60;;;;;;;;;;5006254;28;20068;-64
2022/01/14 05:45:30;;;;;;;64.47;17.55;;;;;;;;;;5021864;28;20049;-63
2022/01/14 05:47:56;;;;;;;62.65;18.20;;;;;;;;;;5001870;28;20415;-63
2022/01/14 05:50:23;;;;;;;73.25;18.73;;;;;;;;;;5014986;28;20046;-63
2022/01/14 05:52:50;;;;;;;91.88;19.45;;;;;;;;;;5014964;28;20097;-63
2022/01/14 05:55:17;;;;;;;87.82;18.02;;;;;;;;;;5011430;28;20049;-63
2022/01/14 05:57:43;;;;;;;81.20;19.95;;;;;;;;;;5017262;28;20298;-63
2022/01/14 06:00:14;;;;;;;66.88;17.20;;;;;;;;;;5012122;28;20041;-63
2022/01/14 06:02:41;;;;;;;85.47;20.45;;;;;;;;;;5010447;28;20403;-63
2022/01/14 06:05:07;;;;;;;95.80;19.50;;;;;;;;;;5007159;28;20510;-62
2022/01/14 06:07:34;;;;;;;59.20;20.02;;;;;;;;;;5015126;28;20430;-63
2022/01/14 06:10:00;;;;;;;151.40;21.02;;;;;;;;;;5020720;28;20457;-62
2022/01/14 06:12:26;;;;;;;96.40;19.17;;;;;;;;;;5007791;28;20410;-62
2022/01/14 06:14:52;;;;;;;74.28;19.02;;;;;;;;;;5019452;28;20045;-63
2022/01/14 06:17:19;;;;;;;109.60;20.00;;;;;;;;;;5000866;28;20271;-63
2022/01/14 06:19:45;;;;;;;60.83;18.52;;;;;;;;;;5018314;28;20052;-63
2022/01/14 06:22:11;;;;;;;81.53;19.08;;;;;;;;;;4988645;28;20046;-63
2022/01/14 06:24:38;;;;;;;106.35;20.65;;;;;;;;;;5010345;28;20394;-63
2022/01/14 06:27:04;;;;;;;111.20;19.65;;;;;;;;;;5021837;28;20092;-64
2022/01/14 06:29:30;;;;;;;130.05;20.35;;;;;;;;;;5006324;28;20061;-63
2022/01/14 06:31:57;;;;;;;105.50;18.55;;;;;;;;;;5022230;28;20532;-63
2022/01/14 06:34:23;;;;;;;71.88;18.98;;;;;;;;;;5011772;28;20053;-64
2022/01/14 06:36:49;;;;;;;86.80;18.27;;;;;;;;;;5021408;28;20053;-64
2022/01/14 06:39:16;;;;;;;87.30;17.67;;;;;;;;;;5017546;28;20053;-64
2022/01/14 06:41:42;;;;;;;95.13;19.42;;;;;;;;;;5016690;28;20560;-63
2022/01/14 06:44:08;;;;;;;79.60;19.08;;;;;;;;;;5016522;28;20056;-64
2022/01/14 06:46:35;;;;;;;109.68;19.73;;;;;;;;;;5010636;28;20045;-64
2022/01/14 06:49:01;;;;;;;72.22;17.63;;;;;;;;;;5020389;28;20053;-64
2022/01/14 06:51:28;;;;;;;124.32;21.45;;;;;;;;;;5019884;28;20049;-63
2022/01/14 06:53:54;;;;;;;138.65;19.60;;;;;;;;;;5001139;28;20047;-64
2022/01/14 06:56:20;;;;;;;72.72;19.20;;;;;;;;;;5024450;28;20057;-66
2022/01/14 06:58:47;;;;;;;78.05;18.77;;;;;;;;;;5004435;28;20045;-67
2022/01/14 07:01:13;;;;;;;109.47;19.38;;;;;;;;;;5021211;28;20042;-66
2022/01/14 07:03:40;;;;;;;75.78;17.52;;;;;;;;;;5009959;28;20081;-66
2022/01/14 07:06:06;;;;;;;90.55;16.73;;;;;;;;;;5020797;28;20453;-66
2022/01/14 07:08:32;;;;;;;97.15;17.45;;;;;;;;;;5022419;28;20065;-66
2022/01/14 07:10:59;;;;;;;81.63;17.00;;;;;;;;;;5010033;28;20060;-66
2022/01/14 07:13:25;;;;;;;64.88;15.90;;;;;;;;;;5015434;28;20574;-66
2022/01/14 07:15:51;;;;;;;72.75;16.63;;;;;;;;;;5010028;28;20433;-66
2022/01/14 07:18:18;;;;;;;79.38;15.77;;;;;;;;;;5023288;28;20550;-66
2022/01/14 07:20:44;;;;;;;64.88;17.95;;;;;;;;;;5014367;28;20054;-66
2022/01/14 07:23:10;;;;;;;95.55;17.50;;;;;;;;;;5024786;28;20142;-66
2022/01/14 07:25:39;;;;;;;65.53;16.55;;;;;;;;;;5013953;28;20057;-66
2022/01/14 07:28:05;;;;;;;57.75;16.58;;;;;;;;;;5013937;28;20049;-66
2022/01/14 07:30:31;;;;;;;98.75;17.88;;;;;;;;;;5019379;28;20048;-66
2022/01/14 07:32:59;;;;;;;105.82;17.45;;;;;;;;;;5014621;28;20045;-66
2022/01/14 07:35:25;;;;;;;83.63;18.25;;;;;;;;;;5018728;28;20072;-67
2022/01/14 07:37:52;;;;;;;47.17;16.52;;;;;;;;;;5010927;28;20049;-66
2022/01/14 07:40:18;;;;;;;104.47;19.58;;;;;;;;;;5012285;28;20052;-66
2022/01/14 07:42:44;;;;;;;84.28;20.70;;;;;;;;;;5023994;28;20499;-66
2022/01/14 07:45:11;;;;;;;90.25;20.33;;;;;;;;;;5008293;28;20049;-66
2022/01/14 07:47:37;;;;;;;62.90;19.00;;;;;;;;;;5008302;28;20064;-65
2022/01/14 07:50:04;;;;;;;79.53;18.83;;;;;;;;;;5011149;28;20183;-65
2022/01/14 07:52:31;;;;;;;61.58;18.80;;;;;;;;;;4997503;28;20064;-66
2022/01/14 07:54:57;;;;;;;52.88;17.70;;;;;;;;;;5011615;28;20049;-66
2022/01/14 07:57:23;;;;;;;90.38;18.33;;;;;;;;;;5020008;28;20045;-66
2022/01/14 07:59:50;;;;;;;55.63;17.42;;;;;;;;;;5020861;28;20049;-65
2022/01/14 08:02:18;;;;;;;57.90;17.67;;;;;;;;;;5017354;28;20745;-65
2022/01/14 08:04:47;;;;;;;71.32;19.38;;;;;;;;;;5018867;28;20104;-65
2022/01/14 08:07:16;;;;;;;81.05;19.98;;;;;;;;;;5016794;28;20072;-66
2022/01/14 08:09:43;;;;;;;44.88;16.85;;;;;;;;;;5018789;28;20136;-66
2022/01/14 08:12:10;;;;;;;42.80;17.05;;;;;;;;;;5020755;28;20243;-65
2022/01/14 08:14:37;;;;;;;45.40;16.20;;;;;;;;;;5006890;28;20049;-65
2022/01/14 08:17:05;;;;;;;51.35;17.25;;;;;;;;;;5001525;28;20049;-65
2022/01/14 08:19:33;;;;;;;46.20;17.48;;;;;;;;;;4996928;28;20421;-65
2022/01/14 08:22:01;;;;;;;35.72;16.13;;;;;;;;;;5007040;28;20847;-66
2022/01/14 08:24:28;;;;;;;39.63;15.70;;;;;;;;;;5013439;28;20056;-66
2022/01/14 08:26:55;;;;;;;37.85;14.25;;;;;;;;;;5022240;28;20045;-66
2022/01/14 08:29:22;;;;;;;45.60;15.40;;;;;;;;;;5011367;28;20042;-65
2022/01/14 08:31:48;;;;;;;36.63;15.07;;;;;;;;;;5012178;28;20493;-65
2022/01/14 08:34:15;;;;;;;54.05;15.90;;;;;;;;;;5019282;28;20049;-66
2022/01/14 08:36:41;;;;;;;41.13;15.80;;;;;;;;;;5013572;28;20140;-66
2022/01/14 08:39:07;;;;;;;34.85;15.65;;;;;;;;;;5018721;28;20152;-65
2022/01/14 08:41:34;;;;;;;41.47;16.23;;;;;;;;;;5008950;28;20045;-66
2022/01/14 08:44:01;;;;;;;32.92;14.80;;;;;;;;;;4995713;28;20141;-65
2022/01/14 08:46:47;;;;;;;32.38;14.40;;;;;;;;;;5016669;28;20132;-66
2022/01/14 08:49:13;;;;;;;44.28;15.20;;;;;;;;;;5010634;28;20041;-66
2022/01/14 08:51:40;;;;;;;33.70;15.13;;;;;;;;;;5016114;28;20041;-66
2022/01/14 08:54:08;;;;;;;36.58;14.60;;;;;;;;;;5009290;28;20057;-66
2022/01/14 08:56:34;;;;;;;35.53;15.73;;;;;;;;;;5014376;28;20045;-66
2022/01/14 08:59:01;;;;;;;40.42;17.10;;;;;;;;;;5022977;28;20546;-66
2022/01/14 09:01:27;;;;;;;40.03;16.02;;;;;;;;;;5017923;28;20045;-66
2022/01/14 09:03:54;;;;;;;37.35;15.27;;;;;;;;;;5020394;28;20045;-66
2022/01/14 09:06:20;;;;;;;42.78;17.10;;;;;;;;;;5008825;28;20085;-66
2022/01/14 09:08:46;;;;;;;47.38;16.35;;;;;;;;;;5020219;28;20064;-65
2022/01/14 09:11:15;;;;;;;47.83;17.20;;;;;;;;;;5002224;28;20556;-65
2022/01/14 09:13:42;;;;;;;48.88;18.98;;;;;;;;;;5019737;28;20041;-66
2022/01/14 09:16:08;;;;;;;44.58;18.90;;;;;;;;;;5014193;28;20045;-65
2022/01/14 09:18:35;;;;;;;41.70;16.77;;;;;;;;;;5021566;28;20644;-66
2022/01/14 09:21:01;;;;;;;51.30;18.00;;;;;;;;;;5018269;28;20246;-65
2022/01/14 09:23:29;;;;;;;44.20;16.85;;;;;;;;;;5002869;28;20049;-66
2022/01/14 09:25:56;;;;;;;35.42;15.40;;;;;;;;;;5014217;28;20048;-65
2022/01/14 09:28:22;;;;;;;43.92;17.60;;;;;;;;;;5009992;28;20114;-67
2022/01/14 09:30:49;;;;;;;47.67;17.77;;;;;;;;;;5015551;28;20050;-65
2022/01/14 09:33:17;;;;;;;42.08;16.77;;;;;;;;;;5013171;28;20434;-67
2022/01/14 09:35:45;;;;;;;52.60;16.48;;;;;;;;;;5012230;28;20510;-65
2022/01/14 09:38:11;;;;;;;38.88;16.88;;;;;;;;;;5013526;28;20509;-66
2022/01/14 09:40:41;;;;;;;38.40;16.95;;;;;;;;;;5009018;28;20087;-68
2022/01/14 09:43:07;;;;;;;38.97;16.83;;;;;;;;;;5022711;28;20049;-65
2022/01/14 09:45:54;;;;;;;39.25;16.48;;;;;;;;;;5002997;28;20052;-67
2022/01/14 09:48:20;;;;;;;39.33;16.98;;;;;;;;;;5019403;28;20053;-65
2022/01/14 09:50:47;;;;;;;39.97;16.23;;;;;;;;;;5000973;28;20689;-66
2022/01/14 09:53:14;;;;;;;41.10;16.40;;;;;;;;;;5004571;28;20482;-68
2022/01/14 09:55:41;;;;;;;36.95;16.48;;;;;;;;;;5015227;28;20053;-66
2022/01/14 09:58:08;;;;;;;38.20;16.90;;;;;;;;;;5011991;28;20056;-66
2022/01/14 10:00:35;;;;;;;35.58;15.93;;;;;;;;;;5020380;28;20232;-66
2022/01/14 10:03:17;;;;;;;38.30;16.10;;;;;;;;;;5014256;28;20414;-66
2022/01/14 10:05:44;;;;;;;37.72;15.60;;;;;;;;;;5014782;28;20735;-66
2022/01/14 10:08:14;;;;;;;30.13;14.80;;;;;;;;;;5010527;28;20139;-66
2022/01/14 10:10:42;;;;;;;41.97;16.90;;;;;;;;;;5017822;28;20076;-66
2022/01/14 10:13:12;;;;;;;31.27;15.13;;;;;;;;;;5020686;28;20060;-65
2022/01/14 10:15:43;;;;;;;32.38;15.63;;;;;;;;;;5027988;28;20053;-66
2022/01/14 10:18:09;;;;;;;33.80;16.00;;;;;;;;;;5018818;28;20052;-67
2022/01/14 10:20:37;;;;;;;31.60;15.23;;;;;;;;;;5013122;28;20049;-65
2022/01/14 10:23:03;;;;;;;31.10;14.70;;;;;;;;;;5017910;28;20323;-66
2022/01/14 10:25:29;;;;;;;35.95;15.13;;;;;;;;;;5013415;28;20057;-65
2022/01/14 10:27:55;;;;;;;41.90;16.63;;;;;;;;;;5016673;28;20057;-66
2022/01/14 10:30:23;;;;;;;38.83;17.25;;;;;;;;;;5020835;28;20053;-65
2022/01/14 10:32:57;;;;;;;40.00;16.63;;;;;;;;;;5008548;28;20068;-65
2022/01/14 10:35:24;;;;;;;40.58;16.98;;;;;;;;;;5013954;28;20056;-66
2022/01/14 10:37:53;;;;;;;35.42;16.75;;;;;;;;;;5012784;28;20402;-65
2022/01/14 10:40:21;;;;;;;42.70;17.30;;;;;;;;;;5022581;28;20049;-65
2022/01/14 10:42:50;;;;;;;37.15;18.20;;;;;;;;;;5013323;28;20045;-65
2022/01/14 10:45:36;;;;;;;41.00;18.52;;;;;;;;;;5015430;28;20093;-65
2022/01/14 10:48:03;;;;;;;43.17;17.88;;;;;;;;;;5011401;28;20049;-66
2022/01/14 10:50:34;;;;;;;42.72;17.33;;;;;;;;;;5019612;28;20065;-65
2022/01/14 10:53:01;;;;;;;43.00;17.27;;;;;;;;;;5021438;28;20144;-66
2022/01/14 10:55:29;;;;;;;39.30;17.58;;;;;;;;;;5011824;28;20474;-65
2022/01/14 10:57:57;;;;;;;36.95;16.88;;;;;;;;;;5023594;28;20557;-65
2022/01/14 11:00:44;;;;;;;35.28;16.50;;;;;;;;;;5007042;28;20049;-65
2022/01/14 11:03:11;;;;;;;37.97;17.30;;;;;;;;;;5018910;28;20041;-65
2022/01/14 11:05:38;;;;;;;40.03;17.23;;;;;;;;;;4994103;28;20057;-65
2022/01/14 11:08:04;;;;;;;33.45;16.38;;;;;;;;;;5022743;28;20473;-65
2022/01/14 11:10:38;;;;;;;30.42;16.83;;;;;;;;;;5002118;28;20431;-65
2022/01/14 11:13:07;;;;;;;31.02;16.05;;;;;;;;;;5011666;28;20041;-67
2022/01/14 11:15:34;;;;;;;36.42;16.65;;;;;;;;;;5021585;28;20045;-67
2022/01/14 11:18:04;;;;;;;29.30;14.82;;;;;;;;;;5013504;28;20048;-67
2022/01/14 11:20:34;;;;;;;30.83;14.98;;;;;;;;;;5018578;28;20528;-67
2022/01/14 11:23:16;;;;;;;33.65;15.35;;;;;;;;;;5008707;28;20352;-67
2022/01/14 11:26:06;;;;;;;31.33;16.00;;;;;;;;;;5021049;28;20421;-67
2022/01/14 11:28:34;;;;;;;33.17;15.60;;;;;;;;;;5009623;28;20056;-66
2022/01/14 11:31:24;;;;;;;32.97;16.35;;;;;;;;;;5019330;28;20045;-67
2022/01/14 11:33:50;;;;;;;30.92;15.77;;;;;;;;;;5019431;28;20345;-67
2022/01/14 11:36:17;;;;;;;30.65;16.05;;;;;;;;;;5012113;28;20041;-67
2022/01/14 11:38:44;;;;;;;33.08;16.27;;;;;;;;;;5016845;28;20046;-67
2022/01/14 11:41:13;;;;;;;36.28;17.15;;;;;;;;;;5012981;28;20058;-67
2022/01/14 11:43:39;;;;;;;;;;;;;;;;;;4998413;28;20052;-67
2022/01/14 11:46:06;;;;;;;35.15;17.48;;;;;;;;;;5011616;28;19952;-66
2022/01/14 11:48:35;;;;;;;39.97;18.55;;;;;;;;;;5018729;28;20061;-67
2022/01/14 11:51:06;;;;;;;39.55;18.35;;;;;;;;;;5021158;28;20419;-67
2022/01/14 11:53:37;;;;;;;34.55;16.30;;;;;;;;;;4992621;28;20401;-67
2022/01/14 11:56:05;;;;;;;36.00;15.95;;;;;;;;;;5018344;28;20352;-66
2022/01/14 11:58:34;;;;;;;34.00;15.40;;;;;;;;;;5008562;28;20053;-67
2022/01/14 12:01:00;;;;;;;37.22;17.33;;;;;;;;;;5018986;28;20069;-67
2022/01/14 12:03:28;;;;;;;33.50;16.35;;;;;;;;;;5017157;28;20410;-67
2022/01/14 12:05:56;;;;;;;44.30;18.92;;;;;;;;;;5015309;28;20064;-67
2022/01/14 12:08:25;;;;;;;37.88;17.42;;;;;;;;;;5017205;28;20045;-67
2022/01/14 12:10:55;;;;;;;37.38;17.50;;;;;;;;;;5009916;28;20048;-67
2022/01/14 12:16:05;;;;;;;34.60;16.60;;;;;;;;;;5018391;28;20049;-67
2022/01/14 12:18:50;;;;;;;35.30;17.48;;;;;;;;;;5015912;28;20437;-67
2022/01/14 12:21:16;;;;;;;36.22;17.98;;;;;;;;;;5010166;28;20052;-67
2022/01/14 12:23:43;;;;;;;37.47;17.52;;;;;;;;;;5014219;28;20329;-67
2022/01/14 12:26:18;;;;;;;32.67;17.77;;;;;;;;;;5013684;28;20059;-67
2022/01/14 12:29:05;;;;;;;34.13;17.85;;;;;;;;;;5014001;28;20599;-67
2022/01/14 12:31:50;;;;;;;37.30;17.42;;;;;;;;;;5018496;28;20238;-67
2022/01/14 12:34:16;;;;;;;35.33;17.70;;;;;;;;;;5010787;28;20128;-67
2022/01/14 12:36:44;;;;;;;35.58;17.45;;;;;;;;;;5019506;28;20431;-67
2022/01/14 12:39:10;;;;;;;34.43;17.33;;;;;;;;;;5006101;28;20550;-67
2022/01/14 12:41:36;;;;;;;40.72;18.17;;;;;;;;;;5014577;28;20049;-67
2022/01/14 12:44:03;;;;;;;32.58;16.25;;;;;;;;;;5011702;28;20045;-67
2022/01/14 12:46:46;;;;;;;33.85;17.67;;;;;;;;;;5021290;28;20484;-67
2022/01/14 12:49:20;;;;;;;36.20;17.58;;;;;;;;;;5014632;28;20149;-67
2022/01/14 12:51:46;;;;;;;35.70;17.30;;;;;;;;;;5010667;28;20052;-67
2022/01/14 12:54:13;;;;;;;33.38;16.80;;;;;;;;;;5009115;28;20064;-67
2022/01/14 12:56:39;;;;;;;32.47;16.45;;;;;;;;;;5008826;28;20053;-67
2022/01/14 12:59:07;;;;;;;38.10;18.25;;;;;;;;;;5016410;28;20136;-68
2022/01/14 13:01:44;;;;;;;32.50;17.90;;;;;;;;;;5010729;28;20049;-67
2022/01/14 13:04:12;;;;;;;36.92;17.52;;;;;;;;;;5008465;28;20045;-67
2022/01/14 13:06:41;;;;;;;37.42;18.42;;;;;;;;;;5016197;28;20041;-67
2022/01/14 13:09:08;;;;;;;35.28;18.17;;;;;;;;;;5004446;28;20041;-67
2022/01/14 13:11:47;;;;;;;41.13;18.45;;;;;;;;;;5021314;28;20168;-67
2022/01/14 13:14:19;;;;;;;43.10;18.80;;;;;;;;;;5011685;28;20181;-67
2022/01/14 13:16:47;;;;;;;46.38;17.83;;;;;;;;;;5019786;28;20164;-67
2022/01/14 13:19:20;;;;;;;43.42;18.60;;;;;;;;;;5013401;28;20054;-67
2022/01/14 13:21:46;;;;;;;40.65;19.00;;;;;;;;;;5027811;28;20049;-67
2022/01/14 13:24:19;;;;;;;39.45;18.83;;;;;;;;;;5013152;28;20509;-67
2022/01/14 13:26:56;;;;;;;37.70;18.42;;;;;;;;;;5021439;28;20068;-68
2022/01/14 13:29:23;;;;;;;37.20;17.27;;;;;;;;;;5017661;28;20045;-66
2022/01/14 13:31:49;;;;;;;44.50;17.88;;;;;;;;;;5017312;28;20049;-66
2022/01/14 13:34:20;;;;;;;42.35;17.85;;;;;;;;;;5011772;28;20045;-66
2022/01/14 13:36:47;;;;;;;34.47;18.30;;;;;;;;;;5008410;28;20050;-66
2022/01/14 13:39:13;;;;;;;40.28;18.30;;;;;;;;;;4998838;28;20077;-66
2022/01/14 13:41:40;;;;;;;39.85;17.90;;;;;;;;;;5013689;28;20129;-66
2022/01/14 13:44:19;;;;;;;43.47;17.90;;;;;;;;;;5017824;28;20705;-66
2022/01/14 13:46:49;;;;;;;33.63;17.55;;;;;;;;;;5019780;28;20053;-66
2022/01/14 13:49:22;;;;;;;35.35;17.45;;;;;;;;;;5009364;28;20052;-66
2022/01/14 13:52:02;;;;;;;40.53;17.48;;;;;;;;;;5016334;28;20762;-66
2022/01/14 13:54:28;;;;;;;33.38;17.45;;;;;;;;;;5008697;28;20059;-66
2022/01/14 13:56:54;;;;;;;34.53;17.70;;;;;;;;;;5018782;28;20064;-67
2022/01/14 13:59:21;;;;;;;34.50;17.25;;;;;;;;;;5008437;28;20049;-66
2022/01/14 14:01:58;;;;;;;35.55;17.20;;;;;;;;;;5015644;28;20486;-66
2022/01/14 14:04:26;;;;;;;38.13;17.45;;;;;;;;;;5000753;28;20410;-66
2022/01/14 14:07:03;;;;;;;42.28;18.13;;;;;;;;;;5018924;28;20083;-66
2022/01/14 14:09:38;;;;;;;38.42;18.92;;;;;;;;;;5011511;28;20057;-66
2022/01/14 14:18:06;;;;;;;43.17;19.85;;;;;;;;;;5009240;28;20056;-66
2022/01/14 14:20:33;;;;;;;40.90;18.48;;;;;;;;;;5012918;28;20046;-66
2022/01/14 14:23:24;;;;;;;36.55;19.67;;;;;;;;;;5010859;28;20045;-66
2022/01/14 14:25:52;;;;;;;35.13;18.17;;;;;;;;;;5008858;28;20443;-66
2022/01/14 14:28:25;;;;;;;35.90;18.52;;;;;;;;;;5013799;28;20053;-66
2022/01/14 14:30:52;;;;;;;34.25;17.70;;;;;;;;;;5010002;28;20505;-66
2022/01/14 14:33:19;;;;;;;37.78;19.42;;;;;;;;;;5016268;28;20071;-66
2022/01/14 14:35:46;;;;;;;32.17;17.65;;;;;;;;;;5009729;28;20060;-66
2022/01/14 14:38:19;;;;;;;37.78;18.92;;;;;;;;;;5016133;28;20512;-66
2022/01/14 14:40:50;;;;;;;42.05;18.23;;;;;;;;;;5007790;28;20784;-65
2022/01/14 14:43:17;;;;;;;39.88;17.95;;;;;;;;;;5018079;28;20482;-65
2022/01/14 14:45:44;;;;;;;40.90;17.80;;;;;;;;;;5001394;28;20524;-66
2022/01/14 14:48:10;;;;;;;34.70;17.63;;;;;;;;;;5020192;28;20578;-66
2022/01/14 14:50:37;;;;;;;44.13;17.60;;;;;;;;;;5021659;28;20049;-66
2022/01/14 14:53:04;;;;;;;46.60;19.83;;;;;;;;;;5009748;28;20044;-66
2022/01/14 14:55:31;;;;;;;39.97;17.83;;;;;;;;;;5021193;28;20054;-66
2022/01/14 14:57:58;;;;;;;33.03;17.60;;;;;;;;;;5007876;28;20276;-66
2022/01/14 15:00:25;;;;;;;38.88;18.60;;;;;;;;;;5015198;28;20056;-66
2022/01/14 15:02:53;;;;;;;35.80;18.52;;;;;;;;;;5014049;28;20045;-66
2022/01/14 15:05:20;;;;;;;32.72;18.65;;;;;;;;;;5020112;28;20584;-66
2022/01/14 15:07:47;;;;;;;35.67;18.38;;;;;;;;;;5025548;28;20419;-65